createdAt,value
2022-10-22T00:02:03.771Z,9.7
2022-10-22T00:04:35.360Z,9.7
2022-10-22T00:07:06.360Z,9.7
2022-10-22T00:09:46.984Z,9.8
2022-10-22T00:12:07.939Z,9.7
2022-10-22T00:14:38.490Z,9.7
2022-10-22T00:17:19.103Z,9.6
2022-10-22T00:19:49.997Z,9.6
2022-10-22T00:22:30.594Z,9.6
2022-10-22T00:24:52.273Z,9.7
2022-10-22T00:27:22.856Z,9.7
2022-10-22T00:29:53.763Z,9.7
2022-10-22T00:35:04.517Z,9.7
2022-10-22T00:37:45.110Z,9.8
2022-10-22T00:40:15.716Z,9.8
2022-10-22T00:42:46.256Z,9.8
2022-10-22T00:45:16.864Z,9.8
2022-10-22T00:47:47.957Z,9.8
2022-10-22T00:50:28.573Z,9.7
2022-10-22T00:52:59.176Z,9.7
2022-10-22T00:55:29.849Z,9.7
2022-10-22T00:58:00.443Z,9.7
2022-10-22T01:00:31.083Z,9.7
2022-10-22T01:03:01.877Z,9.6
2022-10-22T01:05:42.459Z,9.6
2022-10-22T01:08:13.055Z,9.6
2022-10-22T01:10:43.692Z,9.6
2022-10-22T01:15:44.442Z,9.6
2022-10-22T01:18:25.129Z,9.8
2022-10-22T01:20:55.731Z,9.9
2022-10-22T01:23:26.404Z,10.0
2022-10-22T01:25:57.013Z,10.0
2022-10-22T01:28:27.673Z,10.1
2022-10-22T01:30:58.274Z,10.1
2022-10-22T01:33:39.095Z,10.0
2022-10-22T01:36:09.673Z,10.0
2022-10-22T01:38:40.256Z,10.0
2022-10-22T01:41:10.904Z,10.0
2022-10-22T01:43:41.479Z,10.0
2022-10-22T01:46:12.085Z,10.0
2022-10-22T01:48:52.685Z,10.0
2022-10-22T01:51:23.250Z,9.9
2022-10-22T01:56:24.003Z,9.9
2022-10-22T01:58:54.582Z,9.9
2022-10-22T02:01:35.430Z,9.9
2022-10-22T02:04:06.015Z,9.9
2022-10-22T02:06:36.594Z,9.9
2022-10-22T02:09:07.232Z,10.0
2022-10-22T02:11:37.945Z,9.9
2022-10-22T02:14:08.583Z,9.9
2022-10-22T02:16:49.328Z,9.9
2022-10-22T02:19:19.931Z,10.0
2022-10-22T02:21:50.512Z,10.1
2022-10-22T02:24:21.080Z,10.1
2022-10-22T02:26:51.680Z,10.1
2022-10-22T02:29:22.277Z,10.1
2022-10-22T02:32:02.876Z,10.1
2022-10-22T02:37:03.603Z,10.1
2022-10-22T02:39:34.183Z,10.1
2022-10-22T02:42:05.295Z,10.1
2022-10-22T02:44:35.878Z,10.1
2022-10-22T02:47:16.458Z,10.1
2022-10-22T02:49:47.038Z,10.1
2022-10-22T02:52:20.659Z,10.1
2022-10-22T02:54:51.765Z,10.1
2022-10-22T02:57:22.401Z,10.0
2022-10-22T03:00:03.494Z,10.0
2022-10-22T03:02:34.064Z,10.0
2022-10-22T03:05:04.657Z,10.0
2022-10-22T03:07:35.261Z,10.0
2022-10-22T03:10:05.883Z,10.0
2022-10-22T03:12:36.470Z,10.0
2022-10-22T03:17:47.185Z,10.0
2022-10-22T03:20:18.213Z,10.0
2022-10-22T03:22:48.771Z,10.0
2022-10-22T03:25:19.311Z,10.0
2022-10-22T03:27:49.885Z,10.0
2022-10-22T03:30:30.500Z,10.0
2022-10-22T03:33:01.077Z,10.0
2022-10-22T03:35:31.655Z,10.0
2022-10-22T03:38:02.220Z,9.9
2022-10-22T03:40:32.817Z,9.8
2022-10-22T03:43:13.413Z,9.8
2022-10-22T03:45:43.979Z,9.8
2022-10-22T03:48:14.567Z,9.7
2022-10-22T03:50:45.145Z,9.7
2022-10-22T03:53:15.756Z,9.6
2022-10-22T03:58:26.513Z,9.6
2022-10-22T04:00:57.146Z,9.6
2022-10-22T04:03:27.860Z,9.6
2022-10-22T04:05:58.445Z,9.6
2022-10-22T04:08:29.017Z,9.6
2022-10-22T04:10:59.762Z,9.6
2022-10-22T04:13:40.341Z,9.6
2022-10-22T04:16:10.916Z,9.7
2022-10-22T04:18:41.493Z,9.7
2022-10-22T04:21:12.109Z,9.7
2022-10-22T04:23:42.690Z,9.8
2022-10-22T04:26:23.283Z,9.8
2022-10-22T04:28:53.891Z,9.8
2022-10-22T04:31:26.657Z,9.8
2022-10-22T04:33:57.263Z,9.8
2022-10-22T04:38:58.003Z,9.8
2022-10-22T04:41:38.741Z,9.8
2022-10-22T04:44:10.998Z,9.8
2022-10-22T04:46:46.715Z,9.7
2022-10-22T04:49:17.267Z,9.7
2022-10-22T04:51:47.867Z,9.7
2022-10-22T04:54:18.442Z,9.7
2022-10-22T04:56:53.472Z,9.6
2022-10-22T04:59:24.048Z,9.6
2022-10-22T05:01:54.652Z,9.6
2022-10-22T05:04:25.220Z,9.5
2022-10-22T05:06:55.827Z,9.5
2022-10-22T05:09:26.379Z,9.4
2022-10-22T05:12:06.989Z,9.4
2022-10-22T05:14:40.285Z,9.4
2022-10-22T05:19:43.348Z,9.3
2022-10-22T05:22:13.899Z,9.3
2022-10-22T05:24:54.476Z,9.2
2022-10-22T05:27:25.547Z,9.2
2022-10-22T05:29:56.142Z,9.2
2022-10-22T05:32:26.734Z,9.2
2022-10-22T05:34:57.325Z,9.2
2022-10-22T05:37:27.907Z,9.2
2022-10-22T05:42:39.295Z,9.1
2022-10-22T05:45:10.042Z,9.1
2022-10-22T05:47:40.605Z,9.1
2022-10-22T05:50:11.221Z,9.1
2022-10-22T05:52:41.979Z,9.1
2022-10-22T05:55:22.788Z,9.1
2022-10-22T06:00:23.516Z,9.1
2022-10-22T06:02:54.071Z,9.1
2022-10-22T06:05:24.655Z,9.1
2022-10-22T06:08:05.272Z,9.1
2022-10-22T06:10:39.501Z,9.0
2022-10-22T06:13:10.085Z,9.0
2022-10-22T06:15:40.681Z,9.0
2022-10-22T06:18:11.257Z,9.0
2022-10-22T06:20:41.854Z,9.0
2022-10-22T06:23:22.443Z,9.0
2022-10-22T06:25:53.006Z,9.0
2022-10-22T06:30:54.172Z,8.9
2022-10-22T06:33:24.783Z,8.9
2022-10-22T06:41:05.676Z,9.0
2022-10-22T06:43:39.763Z,8.9
2022-10-22T06:46:10.466Z,8.9
2022-10-22T06:48:41.049Z,8.9
2022-10-22T06:51:11.641Z,8.9
2022-10-22T06:53:52.238Z,9.0
2022-10-22T06:56:22.841Z,9.0
2022-10-22T06:58:53.385Z,9.0
2022-10-22T07:01:24.039Z,9.0
2022-10-22T07:03:54.854Z,9.0
2022-10-22T07:06:25.458Z,9.0
2022-10-22T07:09:06.162Z,9.1
2022-10-22T07:11:36.914Z,9.1
2022-10-22T07:14:07.498Z,9.1
2022-10-22T07:16:38.100Z,9.2
2022-10-22T07:21:48.849Z,9.2
2022-10-22T07:26:49.592Z,9.2
2022-10-22T07:29:21.994Z,9.2
2022-10-22T07:31:52.585Z,9.2
2022-10-22T07:34:23.169Z,9.2
2022-10-22T07:37:04.352Z,9.2
2022-10-22T07:39:34.933Z,9.2
2022-10-22T07:42:05.545Z,9.3
2022-10-22T07:44:36.208Z,9.3
2022-10-22T07:47:07.213Z,9.3
2022-10-22T07:49:37.790Z,9.3
2022-10-22T07:52:18.510Z,9.3
2022-10-22T07:54:49.672Z,9.4
2022-10-22T07:57:20.279Z,9.4
2022-10-22T08:02:21.014Z,9.4
2022-10-22T08:04:52.072Z,9.4
2022-10-22T08:07:32.690Z,9.5
2022-10-22T08:10:03.285Z,9.4
2022-10-22T08:12:33.853Z,9.5
2022-10-22T08:15:04.741Z,9.6
2022-10-22T08:17:35.323Z,9.7
2022-10-22T08:20:05.929Z,9.7
2022-10-22T08:22:46.504Z,9.6
2022-10-22T08:25:17.546Z,9.6
2022-10-22T08:27:48.125Z,9.6
2022-10-22T08:30:18.732Z,9.7
2022-10-22T08:32:50.490Z,9.8
2022-10-22T08:35:33.755Z,9.9
2022-10-22T08:38:04.329Z,9.8
2022-10-22T08:43:05.080Z,9.8
2022-10-22T08:48:05.802Z,9.9
2022-10-22T08:50:46.397Z,9.8
2022-10-22T08:53:17.061Z,9.9
2022-10-22T08:55:47.665Z,9.9
2022-10-22T08:58:18.232Z,9.9
2022-10-22T09:00:48.844Z,10.0
2022-10-22T09:03:19.427Z,10.0
2022-10-22T09:06:00.038Z,10.0
2022-10-22T09:08:30.775Z,10.0
2022-10-22T09:11:01.504Z,10.1
2022-10-22T09:13:32.082Z,10.2
2022-10-22T09:16:02.679Z,10.3
2022-10-22T09:18:43.288Z,10.2
2022-10-22T09:23:44.031Z,10.2
2022-10-22T09:26:14.660Z,10.1
2022-10-22T09:28:45.237Z,10.2
2022-10-22T09:31:15.881Z,10.2
2022-10-22T09:33:56.459Z,10.3
2022-10-22T09:36:27.060Z,10.2
2022-10-22T09:38:57.610Z,10.2
2022-10-22T09:41:28.285Z,10.3
2022-10-22T09:43:58.856Z,10.3
2022-10-22T09:46:29.454Z,10.2
2022-10-22T09:49:10.041Z,10.2
2022-10-22T09:51:50.651Z,10.2
2022-10-22T09:54:21.238Z,10.3
2022-10-22T09:56:51.893Z,10.4
2022-10-22T09:59:22.465Z,10.4
2022-10-22T10:04:33.227Z,10.6
2022-10-22T10:07:03.838Z,10.8
2022-10-22T10:09:34.440Z,10.8
2022-10-22T10:12:05.044Z,10.9
2022-10-22T10:14:35.620Z,11.0
2022-10-22T10:17:06.215Z,11.2
2022-10-22T10:19:46.824Z,11.3
2022-10-22T10:22:13.390Z,11.3
2022-10-22T10:24:43.995Z,11.5
2022-10-22T10:27:14.580Z,11.3
2022-10-22T10:29:45.197Z,11.2
2022-10-22T10:32:25.801Z,11.4
2022-10-22T10:34:56.344Z,11.6
2022-10-22T10:37:26.920Z,11.6
2022-10-22T10:39:57.569Z,11.6
2022-10-22T10:44:58.319Z,11.6
2022-10-22T10:47:39.138Z,11.8
2022-10-22T10:50:09.895Z,11.9
2022-10-22T10:52:40.455Z,11.9
2022-10-22T10:55:11.084Z,12.0
2022-10-22T10:57:41.908Z,12.2
2022-10-22T11:00:12.707Z,12.2
2022-10-22T11:02:53.317Z,12.4
2022-10-22T11:05:23.990Z,12.4
2022-10-22T11:07:55.988Z,12.4
2022-10-22T11:10:26.982Z,12.7
2022-10-22T11:12:57.626Z,12.6
2022-10-22T11:15:28.200Z,12.9
2022-10-22T11:18:08.795Z,12.9
2022-10-22T11:20:39.371Z,12.8
2022-10-22T11:25:40.133Z,13.1
2022-10-22T11:28:11.351Z,13.1
2022-10-22T11:30:42.060Z,12.9
2022-10-22T11:33:22.696Z,12.9
2022-10-22T11:35:53.296Z,12.9
2022-10-22T11:38:23.886Z,13.1
2022-10-22T11:40:55.649Z,13.1
2022-10-22T11:43:26.247Z,13.2
2022-10-22T11:46:06.833Z,13.2
2022-10-22T11:48:37.412Z,12.9
2022-10-22T11:51:07.999Z,12.8
2022-10-22T11:53:38.643Z,12.8
2022-10-22T11:56:09.271Z,13.0
2022-10-22T11:58:39.868Z,12.9
2022-10-22T12:01:24.425Z,13.2
2022-10-22T12:06:26.214Z,13.6
2022-10-22T12:08:56.855Z,13.6
2022-10-22T12:11:27.682Z,13.6
2022-10-22T12:13:58.243Z,13.7
2022-10-22T12:16:55.019Z,13.6
2022-10-22T12:19:06.132Z,13.3
2022-10-22T12:21:36.742Z,13.1
2022-10-22T12:24:07.307Z,13.2
2022-10-22T12:26:47.897Z,13.0
2022-10-22T12:29:10.850Z,12.8
2022-10-22T12:31:51.463Z,12.8
2022-10-22T12:34:22.049Z,13.0
2022-10-22T12:39:22.855Z,13.3
2022-10-22T12:41:53.455Z,13.3
2022-10-22T12:47:04.172Z,13.7
2022-10-22T12:49:44.754Z,13.8
2022-10-22T12:52:15.331Z,13.9
2022-10-22T12:54:45.930Z,13.7
2022-10-22T12:57:16.547Z,13.8
2022-10-22T12:59:57.177Z,13.7
2022-10-22T13:02:27.785Z,13.8
2022-10-22T13:04:58.455Z,13.8
2022-10-22T13:07:29.049Z,13.9
2022-10-22T13:09:59.666Z,13.7
2022-10-22T13:12:30.256Z,13.8
2022-10-22T13:15:11.196Z,13.6
2022-10-22T13:17:42.092Z,13.6
2022-10-22T13:20:12.959Z,13.7
2022-10-22T13:22:43.545Z,13.7
2022-10-22T13:27:44.287Z,13.6
2022-10-22T13:30:24.893Z,13.7
2022-10-22T13:32:55.453Z,14.0
2022-10-22T13:35:26.121Z,14.0
2022-10-22T13:37:56.714Z,14.1
2022-10-22T13:40:27.311Z,14.2
2022-10-22T13:43:07.905Z,14.4
2022-10-22T13:45:38.478Z,14.5
2022-10-22T13:48:09.055Z,14.5
2022-10-22T13:50:39.666Z,14.5
2022-10-22T13:53:10.255Z,14.7
2022-10-22T13:55:40.866Z,14.8
2022-10-22T13:58:21.448Z,14.7
2022-10-22T14:00:52.035Z,14.6
2022-10-22T14:03:22.746Z,14.2
2022-10-22T14:08:23.482Z,14.7
2022-10-22T14:10:54.264Z,15.0
2022-10-22T14:13:34.832Z,15.1
2022-10-22T14:16:05.422Z,15.4
2022-10-22T14:18:36.014Z,15.2
2022-10-22T14:21:06.627Z,14.8
2022-10-22T14:23:37.198Z,14.4
2022-10-22T14:26:07.814Z,14.3
2022-10-22T14:29:08.627Z,14.1
2022-10-22T14:31:19.922Z,13.9
2022-10-22T14:33:50.634Z,13.8
2022-10-22T14:36:21.182Z,13.6
2022-10-22T14:38:51.767Z,13.5
2022-10-22T14:41:22.378Z,13.4
2022-10-22T14:44:03.032Z,13.2
2022-10-22T14:49:03.759Z,13.0
2022-10-22T14:51:34.330Z,13.0
2022-10-22T14:54:04.921Z,12.9
2022-10-22T14:59:16.141Z,12.9
2022-10-22T15:01:46.731Z,12.9
2022-10-22T15:04:17.318Z,12.8
2022-10-22T15:06:47.948Z,13.0
2022-10-22T15:09:18.553Z,13.0
2022-10-22T15:11:49.192Z,13.0
2022-10-22T15:14:29.787Z,12.9
2022-10-22T15:17:00.370Z,12.9
2022-10-22T15:19:40.971Z,12.8
2022-10-22T15:22:11.545Z,12.8
2022-10-22T15:24:42.134Z,12.7
2022-10-22T15:29:52.914Z,12.6
2022-10-22T15:32:23.510Z,12.5
2022-10-22T15:34:54.318Z,12.4
2022-10-22T15:37:24.866Z,12.3
2022-10-22T15:39:55.454Z,12.2
2022-10-22T15:42:36.066Z,12.2
2022-10-22T15:45:06.702Z,12.0
2022-10-22T15:47:37.289Z,11.9
2022-10-22T15:50:08.826Z,11.8
2022-10-22T15:52:39.803Z,11.8
2022-10-22T15:55:10.460Z,11.6
2022-10-22T15:57:51.125Z,11.6
2022-10-22T16:00:13.989Z,11.5
2022-10-22T16:02:44.711Z,11.4
2022-10-22T16:05:15.308Z,11.3
2022-10-22T16:10:26.075Z,11.1
2022-10-22T16:13:06.657Z,11.1
2022-10-22T16:15:37.253Z,11.2
2022-10-22T16:18:07.853Z,11.1
2022-10-22T16:20:38.450Z,11.0
2022-10-22T16:23:09.052Z,10.8
2022-10-22T16:25:49.740Z,10.6
2022-10-22T16:28:20.421Z,10.5
2022-10-22T16:30:51.152Z,10.5
2022-10-22T16:33:21.761Z,10.4
2022-10-22T16:35:52.042Z,10.4
2022-10-22T16:38:22.628Z,10.3
2022-10-22T16:41:03.225Z,10.2
2022-10-22T16:43:33.856Z,10.2
2022-10-22T16:46:04.453Z,10.2
2022-10-22T16:51:05.171Z,10.1
2022-10-22T16:53:35.761Z,10.1
2022-10-22T16:56:16.408Z,10.1
2022-10-22T16:58:47.022Z,9.9
2022-10-22T17:01:18.194Z,9.8
2022-10-22T17:03:51.612Z,9.7
2022-10-22T17:06:22.266Z,9.7
2022-10-22T17:08:52.879Z,9.7
2022-10-22T17:11:33.654Z,9.7
2022-10-22T17:14:05.408Z,9.5
2022-10-22T17:16:35.990Z,9.4
2022-10-22T17:19:06.577Z,9.3
2022-10-22T17:21:37.158Z,9.2
2022-10-22T17:24:17.750Z,9.0
2022-10-22T17:26:48.349Z,8.9
2022-10-22T17:31:49.176Z,8.9
2022-10-22T17:34:19.745Z,9.0
2022-10-22T17:36:50.295Z,9.0
2022-10-22T17:39:30.881Z,9.0
2022-10-22T17:42:01.474Z,8.9
2022-10-22T17:44:32.062Z,8.8
2022-10-22T17:47:02.653Z,8.8
2022-10-22T17:49:33.183Z,8.7
2022-10-22T17:52:03.772Z,8.6
2022-10-22T17:54:44.377Z,8.5
2022-10-22T17:57:14.965Z,8.4
2022-10-22T17:59:45.514Z,8.4
2022-10-22T18:02:16.238Z,8.4
2022-10-22T18:04:46.796Z,8.4
2022-10-22T18:07:17.445Z,8.4
2022-10-22T18:12:28.184Z,8.3
2022-10-22T18:14:59.022Z,8.3
2022-10-22T18:17:31.174Z,8.5
2022-10-22T18:20:03.487Z,8.4
2022-10-22T18:22:44.093Z,8.3
2022-10-22T18:25:14.685Z,8.2
2022-10-22T18:27:46.366Z,8.2
2022-10-22T18:30:16.976Z,8.2
2022-10-22T18:32:47.590Z,8.1
2022-10-22T18:35:18.165Z,8.0
2022-10-22T18:37:58.735Z,8.0
2022-10-22T18:40:29.316Z,8.0
2022-10-22T18:42:59.914Z,8.0
2022-10-22T18:45:30.503Z,8.0
2022-10-22T18:48:01.073Z,7.9
2022-10-22T18:53:11.830Z,7.9
2022-10-22T18:55:42.397Z,8.0
2022-10-22T18:58:13.004Z,8.0
2022-10-22T19:00:43.583Z,7.8
2022-10-22T19:03:14.296Z,7.7
2022-10-22T19:05:44.891Z,7.7
2022-10-22T19:08:27.895Z,7.7
2022-10-22T19:10:51.732Z,7.8
2022-10-22T19:13:22.298Z,7.8
2022-10-22T19:15:52.860Z,7.7
2022-10-22T19:18:23.454Z,7.6
2022-10-22T19:21:04.054Z,7.5
2022-10-22T19:26:06.216Z,7.3
2022-10-22T19:28:36.797Z,7.3
2022-10-22T19:33:47.557Z,7.3
2022-10-22T19:36:28.156Z,7.2
2022-10-22T19:38:58.881Z,7.4
2022-10-22T19:41:29.513Z,7.5
2022-10-22T19:44:00.115Z,7.6
2022-10-22T19:46:30.730Z,7.6
2022-10-22T19:49:01.289Z,7.6
2022-10-22T19:51:33.515Z,7.5
2022-10-22T19:54:04.091Z,7.4
2022-10-22T19:56:44.760Z,7.3
2022-10-22T19:59:15.395Z,7.3
2022-10-22T20:01:39.157Z,7.2
2022-10-22T20:04:09.775Z,7.2
2022-10-22T20:06:50.379Z,7.2
2022-10-22T20:09:20.976Z,7.2
2022-10-22T20:14:21.742Z,7.2
2022-10-22T20:16:52.320Z,7.2
2022-10-22T20:19:22.917Z,7.0
2022-10-22T20:22:03.526Z,7.0
2022-10-22T20:24:38.303Z,7.1
2022-10-22T20:27:08.884Z,7.0
2022-10-22T20:29:39.459Z,6.9
2022-10-22T20:32:10.051Z,6.8
2022-10-22T20:34:50.650Z,6.8
2022-10-22T20:37:21.226Z,6.7
2022-10-22T20:39:51.803Z,6.8
2022-10-22T20:42:22.421Z,6.8
2022-10-22T20:44:53.644Z,6.7
2022-10-22T20:47:27.252Z,6.7
2022-10-22T20:50:03.440Z,6.8
2022-10-22T20:55:04.163Z,7.0
2022-10-22T20:57:34.814Z,7.0
2022-10-22T21:00:05.519Z,7.0
2022-10-22T21:02:36.088Z,6.9
2022-10-22T21:05:16.699Z,7.0
2022-10-22T21:07:47.287Z,7.2
2022-10-22T21:10:17.891Z,7.1
2022-10-22T21:12:53.057Z,7.2
2022-10-22T21:15:23.640Z,7.1
2022-10-22T21:17:54.199Z,7.1
2022-10-22T21:20:34.883Z,7.1
2022-10-22T21:23:05.461Z,7.2
2022-10-22T21:25:38.382Z,7.4
2022-10-22T21:28:11.326Z,7.4
2022-10-22T21:30:41.935Z,7.4
2022-10-22T21:35:52.692Z,7.2
2022-10-22T21:38:23.243Z,7.2
2022-10-22T21:40:53.844Z,7.2
2022-10-22T21:43:24.411Z,7.2
2022-10-22T21:45:55.025Z,7.2
2022-10-22T21:48:38.565Z,7.2
2022-10-22T21:51:09.144Z,7.2
2022-10-22T21:53:39.762Z,7.2
2022-10-22T21:56:10.488Z,7.2
2022-10-22T21:58:41.112Z,7.2
2022-10-22T22:01:11.743Z,7.2
2022-10-22T22:03:52.597Z,7.2
2022-10-22T22:06:23.204Z,7.2
2022-10-22T22:08:54.319Z,7.2
2022-10-22T22:11:25.137Z,7.2
2022-10-22T22:16:27.340Z,7.0
2022-10-22T22:18:59.377Z,7.0
2022-10-22T22:21:29.984Z,6.9
2022-10-22T22:24:00.601Z,6.9
2022-10-22T22:26:31.188Z,6.9
2022-10-22T22:29:01.818Z,6.9
2022-10-22T22:31:32.414Z,6.9
2022-10-22T22:34:13.015Z,7.0
2022-10-22T22:36:53.615Z,6.9
2022-10-22T22:39:24.189Z,7.0
2022-10-22T22:41:54.794Z,7.0
2022-10-22T22:44:25.375Z,7.0
2022-10-22T22:46:55.980Z,7.0
2022-10-22T22:49:36.731Z,7.0
2022-10-22T22:52:07.372Z,7.0
2022-10-22T22:57:08.254Z,7.0
2022-10-22T22:59:38.844Z,7.0
2022-10-22T23:02:19.421Z,7.0
2022-10-22T23:04:50.463Z,6.9
2022-10-22T23:07:21.093Z,6.8
2022-10-22T23:09:51.706Z,6.8
2022-10-22T23:12:22.294Z,6.8
2022-10-22T23:14:53.199Z,6.9
2022-10-22T23:17:33.780Z,7.0
2022-10-22T23:20:04.391Z,6.9
2022-10-22T23:22:34.985Z,6.8
2022-10-22T23:25:05.708Z,6.8
2022-10-22T23:27:36.287Z,6.8
2022-10-22T23:30:06.889Z,6.8
2022-10-22T23:32:47.502Z,6.9
2022-10-22T23:37:48.253Z,6.9
2022-10-22T23:40:18.853Z,6.8
2022-10-22T23:42:49.455Z,6.9
2022-10-22T23:45:20.068Z,7.0
2022-10-22T23:48:00.666Z,6.9
2022-10-22T23:50:31.239Z,6.9
2022-10-22T23:53:01.834Z,6.8
2022-10-22T23:55:32.443Z,6.7
2022-10-22T23:58:03.017Z,6.7
